sensor_id;sensor_type;location;lat;lon;timestamp;P1;durP1;ratioP1;P2;durP2;ratioP2
16254;SDS011;8235;52.198;9.904;2024-02-15T00:01:17;6.53;;;5.67;;
16254;SDS011;8235;52.198;9.904;2024-02-15T00:03:44;5.80;;;5.20;;
16254;SDS011;8235;52.198;9.904;2024-02-15T00:06:11;5.77;;;5.27;;
16254;SDS011;8235;52.198;9.904;2024-02-15T00:08:38;6.13;;;5.17;;
16254;SDS011;8235;52.198;9.904;2024-02-15T00:11:05;6.50;;;4.90;;
16254;SDS011;8235;52.198;9.904;2024-02-15T00:13:34;6.50;;;5.90;;
16254;SDS011;8235;52.198;9.904;2024-02-15T00:16:01;6.33;;;5.73;;
16254;SDS011;8235;52.198;9.904;2024-02-15T00:18:27;6.67;;;6.00;;
16254;SDS011;8235;52.198;9.904;2024-02-15T00:20:54;7.17;;;6.47;;
16254;SDS011;8235;52.198;9.904;2024-02-15T00:23:22;6.70;;;6.00;;
16254;SDS011;8235;52.198;9.904;2024-02-15T00:25:48;5.83;;;5.30;;
16254;SDS011;8235;52.198;9.904;2024-02-15T00:28:15;8.30;;;7.50;;
16254;SDS011;8235;52.198;9.904;2024-02-15T00:30:41;7.37;;;6.10;;
16254;SDS011;8235;52.198;9.904;2024-02-15T00:33:08;6.13;;;5.43;;
16254;SDS011;8235;52.198;9.904;2024-02-15T00:35:35;7.10;;;6.20;;
16254;SDS011;8235;52.198;9.904;2024-02-15T00:38:02;6.70;;;5.67;;
16254;SDS011;8235;52.198;9.904;2024-02-15T00:40:30;6.70;;;5.60;;
16254;SDS011;8235;52.198;9.904;2024-02-15T00:42:57;6.13;;;5.00;;
16254;SDS011;8235;52.198;9.904;2024-02-15T00:45:23;7.33;;;5.93;;
16254;SDS011;8235;52.198;9.904;2024-02-15T00:47:50;6.37;;;5.30;;
16254;SDS011;8235;52.198;9.904;2024-02-15T00:50:16;6.43;;;5.83;;
16254;SDS011;8235;52.198;9.904;2024-02-15T00:52:43;6.83;;;5.57;;
16254;SDS011;8235;52.198;9.904;2024-02-15T00:55:09;6.93;;;5.60;;
16254;SDS011;8235;52.198;9.904;2024-02-15T00:57:37;6.23;;;5.13;;
16254;SDS011;8235;52.198;9.904;2024-02-15T01:00:04;6.90;;;6.07;;
16254;SDS011;8235;52.198;9.904;2024-02-15T01:02:34;8.53;;;5.53;;
16254;SDS011;8235;52.198;9.904;2024-02-15T01:05:01;6.50;;;5.17;;
16254;SDS011;8235;52.198;9.904;2024-02-15T01:07:28;4.90;;;4.43;;
16254;SDS011;8235;52.198;9.904;2024-02-15T01:09:55;5.27;;;4.77;;
16254;SDS011;8235;52.198;9.904;2024-02-15T01:12:21;5.30;;;4.80;;
16254;SDS011;8235;52.198;9.904;2024-02-15T01:14:49;5.70;;;5.10;;
16254;SDS011;8235;52.198;9.904;2024-02-15T01:17:16;5.53;;;4.60;;
16254;SDS011;8235;52.198;9.904;2024-02-15T01:19:42;5.20;;;4.57;;
16254;SDS011;8235;52.198;9.904;2024-02-15T01:22:08;4.33;;;3.80;;
16254;SDS011;8235;52.198;9.904;2024-02-15T01:24:35;5.37;;;4.43;;
16254;SDS011;8235;52.198;9.904;2024-02-15T01:27:01;4.73;;;4.20;;
16254;SDS011;8235;52.198;9.904;2024-02-15T01:29:28;5.90;;;4.90;;
16254;SDS011;8235;52.198;9.904;2024-02-15T01:31:56;6.13;;;5.17;;
16254;SDS011;8235;52.198;9.904;2024-02-15T01:34:22;4.97;;;4.40;;
16254;SDS011;8235;52.198;9.904;2024-02-15T01:36:49;5.47;;;4.40;;
16254;SDS011;8235;52.198;9.904;2024-02-15T01:39:16;6.27;;;4.60;;
16254;SDS011;8235;52.198;9.904;2024-02-15T01:41:46;5.10;;;4.50;;
16254;SDS011;8235;52.198;9.904;2024-02-15T01:44:13;5.27;;;4.73;;
16254;SDS011;8235;52.198;9.904;2024-02-15T01:46:39;4.43;;;4.00;;
16254;SDS011;8235;52.198;9.904;2024-02-15T01:49:08;4.03;;;3.60;;
16254;SDS011;8235;52.198;9.904;2024-02-15T01:51:34;7.37;;;5.37;;
16254;SDS011;8235;52.198;9.904;2024-02-15T01:54:02;4.67;;;4.27;;
16254;SDS011;8235;52.198;9.904;2024-02-15T01:56:29;4.73;;;3.87;;
16254;SDS011;8235;52.198;9.904;2024-02-15T01:58:56;4.30;;;3.77;;
16254;SDS011;8235;52.198;9.904;2024-02-15T02:01:23;4.93;;;4.10;;
16254;SDS011;8235;52.198;9.904;2024-02-15T02:03:50;4.40;;;4.00;;
16254;SDS011;8235;52.198;9.904;2024-02-15T02:06:18;4.73;;;3.50;;
16254;SDS011;8235;52.198;9.904;2024-02-15T02:08:45;3.77;;;3.40;;
16254;SDS011;8235;52.198;9.904;2024-02-15T02:11:11;4.73;;;3.93;;
16254;SDS011;8235;52.198;9.904;2024-02-15T02:13:37;4.07;;;3.00;;
16254;SDS011;8235;52.198;9.904;2024-02-15T02:16:04;4.33;;;3.57;;
16254;SDS011;8235;52.198;9.904;2024-02-15T02:18:49;4.17;;;2.67;;
16254;SDS011;8235;52.198;9.904;2024-02-15T02:21:17;3.40;;;3.10;;
16254;SDS011;8235;52.198;9.904;2024-02-15T02:23:44;3.03;;;2.70;;
16254;SDS011;8235;52.198;9.904;2024-02-15T02:26:16;2.90;;;2.60;;
16254;SDS011;8235;52.198;9.904;2024-02-15T02:28:43;3.17;;;2.87;;
16254;SDS011;8235;52.198;9.904;2024-02-15T02:31:09;3.70;;;2.53;;
16254;SDS011;8235;52.198;9.904;2024-02-15T02:33:36;2.87;;;2.53;;
16254;SDS011;8235;52.198;9.904;2024-02-15T02:36:03;2.73;;;2.53;;
16254;SDS011;8235;52.198;9.904;2024-02-15T02:38:32;4.90;;;2.53;;
16254;SDS011;8235;52.198;9.904;2024-02-15T02:40:59;2.53;;;2.33;;
16254;SDS011;8235;52.198;9.904;2024-02-15T02:43:26;3.30;;;2.67;;
16254;SDS011;8235;52.198;9.904;2024-02-15T02:45:53;2.80;;;2.50;;
16254;SDS011;8235;52.198;9.904;2024-02-15T02:48:19;2.43;;;2.23;;
16254;SDS011;8235;52.198;9.904;2024-02-15T02:50:46;2.20;;;2.00;;
16254;SDS011;8235;52.198;9.904;2024-02-15T02:53:13;1.93;;;1.83;;
16254;SDS011;8235;52.198;9.904;2024-02-15T02:55:40;2.30;;;2.10;;
16254;SDS011;8235;52.198;9.904;2024-02-15T02:58:06;2.60;;;2.40;;
16254;SDS011;8235;52.198;9.904;2024-02-15T03:00:34;4.83;;;2.57;;
16254;SDS011;8235;52.198;9.904;2024-02-15T03:03:02;2.67;;;2.40;;
16254;SDS011;8235;52.198;9.904;2024-02-15T03:05:30;2.60;;;2.10;;
16254;SDS011;8235;52.198;9.904;2024-02-15T03:07:56;7.97;;;3.10;;
16254;SDS011;8235;52.198;9.904;2024-02-15T03:10:23;2.47;;;2.27;;
16254;SDS011;8235;52.198;9.904;2024-02-15T03:12:49;2.23;;;1.70;;
16254;SDS011;8235;52.198;9.904;2024-02-15T03:15:16;2.67;;;2.20;;
16254;SDS011;8235;52.198;9.904;2024-02-15T03:17:47;3.40;;;2.33;;
16254;SDS011;8235;52.198;9.904;2024-02-15T03:20:15;4.60;;;2.13;;
16254;SDS011;8235;52.198;9.904;2024-02-15T03:22:50;2.50;;;2.30;;
16254;SDS011;8235;52.198;9.904;2024-02-15T03:25:17;3.20;;;2.13;;
16254;SDS011;8235;52.198;9.904;2024-02-15T03:27:43;2.90;;;2.03;;
16254;SDS011;8235;52.198;9.904;2024-02-15T03:30:10;2.83;;;2.00;;
16254;SDS011;8235;52.198;9.904;2024-02-15T03:32:37;3.30;;;2.07;;
16254;SDS011;8235;52.198;9.904;2024-02-15T03:35:07;2.33;;;2.13;;
16254;SDS011;8235;52.198;9.904;2024-02-15T03:37:34;4.20;;;1.90;;
16254;SDS011;8235;52.198;9.904;2024-02-15T03:40:02;1.87;;;1.70;;
16254;SDS011;8235;52.198;9.904;2024-02-15T03:42:30;1.93;;;1.73;;
16254;SDS011;8235;52.198;9.904;2024-02-15T03:44:56;2.30;;;2.00;;
16254;SDS011;8235;52.198;9.904;2024-02-15T03:47:23;2.30;;;1.87;;
16254;SDS011;8235;52.198;9.904;2024-02-15T03:49:49;2.10;;;1.80;;
16254;SDS011;8235;52.198;9.904;2024-02-15T03:52:20;1.63;;;1.47;;
16254;SDS011;8235;52.198;9.904;2024-02-15T03:54:47;1.83;;;1.73;;
16254;SDS011;8235;52.198;9.904;2024-02-15T03:57:13;1.97;;;1.77;;
16254;SDS011;8235;52.198;9.904;2024-02-15T03:59:41;2.03;;;1.83;;
16254;SDS011;8235;52.198;9.904;2024-02-15T04:02:08;1.90;;;1.60;;
16254;SDS011;8235;52.198;9.904;2024-02-15T04:04:39;2.23;;;1.80;;
16254;SDS011;8235;52.198;9.904;2024-02-15T04:07:07;2.00;;;1.50;;
16254;SDS011;8235;52.198;9.904;2024-02-15T04:09:35;2.03;;;1.83;;
16254;SDS011;8235;52.198;9.904;2024-02-15T04:12:01;2.17;;;1.73;;
16254;SDS011;8235;52.198;9.904;2024-02-15T04:14:28;2.60;;;1.87;;
16254;SDS011;8235;52.198;9.904;2024-02-15T04:16:54;3.30;;;2.10;;
16254;SDS011;8235;52.198;9.904;2024-02-15T04:19:22;2.57;;;1.90;;
16254;SDS011;8235;52.198;9.904;2024-02-15T04:21:48;2.57;;;2.00;;
16254;SDS011;8235;52.198;9.904;2024-02-15T04:24:15;3.27;;;2.10;;
16254;SDS011;8235;52.198;9.904;2024-02-15T04:26:43;2.83;;;2.10;;
16254;SDS011;8235;52.198;9.904;2024-02-15T04:29:12;2.60;;;2.07;;
16254;SDS011;8235;52.198;9.904;2024-02-15T04:31:39;2.50;;;2.30;;
16254;SDS011;8235;52.198;9.904;2024-02-15T04:34:07;3.10;;;2.50;;
16254;SDS011;8235;52.198;9.904;2024-02-15T04:36:35;4.70;;;2.80;;
16254;SDS011;8235;52.198;9.904;2024-02-15T04:39:01;2.70;;;1.90;;
16254;SDS011;8235;52.198;9.904;2024-02-15T04:41:29;2.50;;;2.30;;
16254;SDS011;8235;52.198;9.904;2024-02-15T04:43:57;2.43;;;2.23;;
16254;SDS011;8235;52.198;9.904;2024-02-15T04:46:23;2.60;;;2.40;;
16254;SDS011;8235;52.198;9.904;2024-02-15T04:48:49;3.50;;;2.30;;
16254;SDS011;8235;52.198;9.904;2024-02-15T04:51:16;2.93;;;2.53;;
16254;SDS011;8235;52.198;9.904;2024-02-15T04:53:44;2.33;;;2.10;;
16254;SDS011;8235;52.198;9.904;2024-02-15T04:56:13;2.57;;;2.37;;
16254;SDS011;8235;52.198;9.904;2024-02-15T04:58:39;3.80;;;2.30;;
16254;SDS011;8235;52.198;9.904;2024-02-15T05:01:13;2.73;;;2.30;;
16254;SDS011;8235;52.198;9.904;2024-02-15T05:03:40;2.60;;;2.40;;
16254;SDS011;8235;52.198;9.904;2024-02-15T05:06:12;3.47;;;2.67;;
16254;SDS011;8235;52.198;9.904;2024-02-15T05:08:39;2.80;;;2.50;;
16254;SDS011;8235;52.198;9.904;2024-02-15T05:11:07;2.63;;;2.43;;
16254;SDS011;8235;52.198;9.904;2024-02-15T05:13:39;2.87;;;2.67;;
16254;SDS011;8235;52.198;9.904;2024-02-15T05:16:05;3.87;;;2.57;;
16254;SDS011;8235;52.198;9.904;2024-02-15T05:18:33;3.87;;;2.87;;
16254;SDS011;8235;52.198;9.904;2024-02-15T05:21:00;3.23;;;2.70;;
16254;SDS011;8235;52.198;9.904;2024-02-15T05:23:28;3.27;;;2.50;;
16254;SDS011;8235;52.198;9.904;2024-02-15T05:25:55;5.03;;;2.80;;
16254;SDS011;8235;52.198;9.904;2024-02-15T05:28:23;2.70;;;2.50;;
16254;SDS011;8235;52.198;9.904;2024-02-15T05:31:08;4.33;;;2.83;;
16254;SDS011;8235;52.198;9.904;2024-02-15T05:33:37;4.70;;;2.70;;
16254;SDS011;8235;52.198;9.904;2024-02-15T05:36:07;3.27;;;2.97;;
16254;SDS011;8235;52.198;9.904;2024-02-15T05:38:35;3.43;;;2.97;;
16254;SDS011;8235;52.198;9.904;2024-02-15T05:41:01;3.47;;;3.07;;
16254;SDS011;8235;52.198;9.904;2024-02-15T05:43:28;3.70;;;3.33;;
16254;SDS011;8235;52.198;9.904;2024-02-15T05:45:55;3.17;;;2.87;;
16254;SDS011;8235;52.198;9.904;2024-02-15T05:48:23;4.30;;;3.30;;
16254;SDS011;8235;52.198;9.904;2024-02-15T05:50:50;4.40;;;4.00;;
16254;SDS011;8235;52.198;9.904;2024-02-15T05:53:19;4.47;;;3.87;;
16254;SDS011;8235;52.198;9.904;2024-02-15T05:55:45;3.93;;;3.47;;
16254;SDS011;8235;52.198;9.904;2024-02-15T05:58:14;3.50;;;3.10;;
16254;SDS011;8235;52.198;9.904;2024-02-15T06:00:42;4.13;;;3.73;;
16254;SDS011;8235;52.198;9.904;2024-02-15T06:03:09;4.77;;;3.77;;
16254;SDS011;8235;52.198;9.904;2024-02-15T06:05:37;6.10;;;4.03;;
16254;SDS011;8235;52.198;9.904;2024-02-15T06:08:05;6.07;;;4.20;;
16254;SDS011;8235;52.198;9.904;2024-02-15T06:10:31;4.07;;;3.57;;
16254;SDS011;8235;52.198;9.904;2024-02-15T06:12:58;5.30;;;3.77;;
16254;SDS011;8235;52.198;9.904;2024-02-15T06:15:25;5.07;;;4.17;;
16254;SDS011;8235;52.198;9.904;2024-02-15T06:17:52;4.60;;;3.63;;
16254;SDS011;8235;52.198;9.904;2024-02-15T06:20:18;4.23;;;3.50;;
16254;SDS011;8235;52.198;9.904;2024-02-15T06:22:46;5.90;;;3.73;;
16254;SDS011;8235;52.198;9.904;2024-02-15T06:25:14;3.97;;;3.50;;
16254;SDS011;8235;52.198;9.904;2024-02-15T06:27:45;4.47;;;2.80;;
16254;SDS011;8235;52.198;9.904;2024-02-15T06:30:13;5.73;;;3.20;;
16254;SDS011;8235;52.198;9.904;2024-02-15T06:33:09;4.87;;;3.43;;
16254;SDS011;8235;52.198;9.904;2024-02-15T06:35:56;5.60;;;3.70;;
16254;SDS011;8235;52.198;9.904;2024-02-15T06:38:43;5.43;;;4.17;;
16254;SDS011;8235;52.198;9.904;2024-02-15T06:41:30;7.10;;;5.70;;
16254;SDS011;8235;52.198;9.904;2024-02-15T06:43:56;6.40;;;5.10;;
16254;SDS011;8235;52.198;9.904;2024-02-15T06:46:23;7.17;;;5.33;;
16254;SDS011;8235;52.198;9.904;2024-02-15T06:48:49;6.93;;;4.70;;
16254;SDS011;8235;52.198;9.904;2024-02-15T06:51:16;5.90;;;4.53;;
16254;SDS011;8235;52.198;9.904;2024-02-15T06:53:45;9.30;;;4.97;;
16254;SDS011;8235;52.198;9.904;2024-02-15T06:56:12;7.17;;;5.13;;
16254;SDS011;8235;52.198;9.904;2024-02-15T06:58:40;5.50;;;4.77;;
16254;SDS011;8235;52.198;9.904;2024-02-15T07:01:06;8.10;;;4.97;;
16254;SDS011;8235;52.198;9.904;2024-02-15T07:03:33;7.53;;;5.07;;
16254;SDS011;8235;52.198;9.904;2024-02-15T07:06:00;8.60;;;5.70;;
16254;SDS011;8235;52.198;9.904;2024-02-15T07:08:27;9.70;;;6.00;;
16254;SDS011;8235;52.198;9.904;2024-02-15T07:10:54;8.60;;;5.43;;
16254;SDS011;8235;52.198;9.904;2024-02-15T07:13:21;7.73;;;5.67;;
16254;SDS011;8235;52.198;9.904;2024-02-15T07:15:49;7.23;;;5.13;;
16254;SDS011;8235;52.198;9.904;2024-02-15T07:18:15;7.27;;;4.77;;
16254;SDS011;8235;52.198;9.904;2024-02-15T07:20:45;7.27;;;5.20;;
16254;SDS011;8235;52.198;9.904;2024-02-15T07:23:11;7.03;;;4.43;;
16254;SDS011;8235;52.198;9.904;2024-02-15T07:25:38;5.33;;;4.23;;
16254;SDS011;8235;52.198;9.904;2024-02-15T07:28:04;7.07;;;4.87;;
16254;SDS011;8235;52.198;9.904;2024-02-15T07:30:33;6.30;;;4.80;;
16254;SDS011;8235;52.198;9.904;2024-02-15T07:33:00;5.87;;;3.93;;
16254;SDS011;8235;52.198;9.904;2024-02-15T07:35:27;6.00;;;4.10;;
16254;SDS011;8235;52.198;9.904;2024-02-15T07:37:54;8.03;;;4.03;;
16254;SDS011;8235;52.198;9.904;2024-02-15T07:40:23;4.73;;;3.57;;
16254;SDS011;8235;52.198;9.904;2024-02-15T07:42:54;3.50;;;2.57;;
16254;SDS011;8235;52.198;9.904;2024-02-15T07:45:21;3.67;;;2.63;;
16254;SDS011;8235;52.198;9.904;2024-02-15T07:47:48;4.57;;;2.73;;
16254;SDS011;8235;52.198;9.904;2024-02-15T07:50:17;13.97;;;8.37;;
16254;SDS011;8235;52.198;9.904;2024-02-15T07:52:48;7.17;;;4.67;;
16254;SDS011;8235;52.198;9.904;2024-02-15T07:55:16;4.77;;;3.90;;
16254;SDS011;8235;52.198;9.904;2024-02-15T07:57:42;4.03;;;2.70;;
16254;SDS011;8235;52.198;9.904;2024-02-15T08:00:09;5.73;;;3.20;;
16254;SDS011;8235;52.198;9.904;2024-02-15T08:02:37;3.97;;;2.30;;
16254;SDS011;8235;52.198;9.904;2024-02-15T08:05:06;5.00;;;3.00;;
16254;SDS011;8235;52.198;9.904;2024-02-15T08:07:36;5.07;;;2.60;;
16254;SDS011;8235;52.198;9.904;2024-02-15T08:10:04;3.60;;;2.70;;
16254;SDS011;8235;52.198;9.904;2024-02-15T08:12:33;3.50;;;2.47;;
16254;SDS011;8235;52.198;9.904;2024-02-15T08:14:59;2.53;;;2.27;;
16254;SDS011;8235;52.198;9.904;2024-02-15T08:17:26;4.60;;;2.23;;
16254;SDS011;8235;52.198;9.904;2024-02-15T08:19:54;3.83;;;2.20;;
16254;SDS011;8235;52.198;9.904;2024-02-15T08:22:20;6.03;;;2.50;;
16254;SDS011;8235;52.198;9.904;2024-02-15T08:24:51;5.57;;;2.00;;
16254;SDS011;8235;52.198;9.904;2024-02-15T08:27:18;2.97;;;1.87;;
16254;SDS011;8235;52.198;9.904;2024-02-15T08:29:45;3.27;;;2.10;;
16254;SDS011;8235;52.198;9.904;2024-02-15T08:32:11;3.00;;;1.70;;
16254;SDS011;8235;52.198;9.904;2024-02-15T08:34:39;3.30;;;2.00;;
16254;SDS011;8235;52.198;9.904;2024-02-15T08:37:06;6.77;;;1.67;;
16254;SDS011;8235;52.198;9.904;2024-02-15T08:39:32;2.17;;;1.77;;
16254;SDS011;8235;52.198;9.904;2024-02-15T08:42:00;2.07;;;1.50;;
16254;SDS011;8235;52.198;9.904;2024-02-15T08:44:26;8.43;;;5.40;;
16254;SDS011;8235;52.198;9.904;2024-02-15T08:46:53;2.47;;;1.83;;
16254;SDS011;8235;52.198;9.904;2024-02-15T08:49:20;3.23;;;1.40;;
16254;SDS011;8235;52.198;9.904;2024-02-15T08:51:47;3.03;;;1.70;;
16254;SDS011;8235;52.198;9.904;2024-02-15T08:54:13;3.20;;;1.43;;
16254;SDS011;8235;52.198;9.904;2024-02-15T08:56:40;3.50;;;1.77;;
16254;SDS011;8235;52.198;9.904;2024-02-15T08:59:08;1.97;;;1.40;;
16254;SDS011;8235;52.198;9.904;2024-02-15T09:01:34;1.43;;;1.30;;
16254;SDS011;8235;52.198;9.904;2024-02-15T09:04:00;4.10;;;2.10;;
16254;SDS011;8235;52.198;9.904;2024-02-15T09:06:27;2.37;;;1.27;;
16254;SDS011;8235;52.198;9.904;2024-02-15T09:08:54;2.53;;;1.73;;
16254;SDS011;8235;52.198;9.904;2024-02-15T09:11:22;3.73;;;1.70;;
16254;SDS011;8235;52.198;9.904;2024-02-15T09:13:48;2.47;;;1.60;;
16254;SDS011;8235;52.198;9.904;2024-02-15T09:16:17;2.33;;;1.30;;
16254;SDS011;8235;52.198;9.904;2024-02-15T09:18:46;2.87;;;1.60;;
16254;SDS011;8235;52.198;9.904;2024-02-15T09:21:13;1.37;;;1.23;;
16254;SDS011;8235;52.198;9.904;2024-02-15T09:23:39;4.07;;;2.70;;
16254;SDS011;8235;52.198;9.904;2024-02-15T09:26:06;3.00;;;2.20;;
16254;SDS011;8235;52.198;9.904;2024-02-15T09:28:34;3.60;;;2.50;;
16254;SDS011;8235;52.198;9.904;2024-02-15T09:31:01;4.00;;;2.47;;
16254;SDS011;8235;52.198;9.904;2024-02-15T09:33:28;2.40;;;1.63;;
16254;SDS011;8235;52.198;9.904;2024-02-15T09:35:55;2.23;;;1.30;;
16254;SDS011;8235;52.198;9.904;2024-02-15T09:38:21;2.67;;;1.40;;
16254;SDS011;8235;52.198;9.904;2024-02-15T09:40:50;3.33;;;1.60;;
16254;SDS011;8235;52.198;9.904;2024-02-15T09:43:16;1.73;;;1.30;;
16254;SDS011;8235;52.198;9.904;2024-02-15T09:45:43;3.27;;;1.67;;
16254;SDS011;8235;52.198;9.904;2024-02-15T09:48:10;2.17;;;1.70;;
16254;SDS011;8235;52.198;9.904;2024-02-15T09:50:39;2.30;;;1.40;;
16254;SDS011;8235;52.198;9.904;2024-02-15T09:53:07;3.37;;;1.50;;
16254;SDS011;8235;52.198;9.904;2024-02-15T09:55:34;2.47;;;1.20;;
16254;SDS011;8235;52.198;9.904;2024-02-15T09:58:04;4.07;;;1.73;;
16254;SDS011;8235;52.198;9.904;2024-02-15T10:00:31;4.33;;;1.93;;
16254;SDS011;8235;52.198;9.904;2024-02-15T10:03:00;1.80;;;1.20;;
16254;SDS011;8235;52.198;9.904;2024-02-15T10:05:28;3.70;;;1.40;;
16254;SDS011;8235;52.198;9.904;2024-02-15T10:07:57;3.47;;;1.73;;
16254;SDS011;8235;52.198;9.904;2024-02-15T10:10:25;4.77;;;2.40;;
16254;SDS011;8235;52.198;9.904;2024-02-15T10:12:53;4.17;;;1.80;;
16254;SDS011;8235;52.198;9.904;2024-02-15T10:15:33;2.80;;;1.63;;
16254;SDS011;8235;52.198;9.904;2024-02-15T10:18:02;1.40;;;1.23;;
16254;SDS011;8235;52.198;9.904;2024-02-15T10:20:30;2.90;;;1.40;;
16254;SDS011;8235;52.198;9.904;2024-02-15T10:23:09;1.63;;;1.10;;
16254;SDS011;8235;52.198;9.904;2024-02-15T10:25:37;2.47;;;1.10;;
16254;SDS011;8235;52.198;9.904;2024-02-15T10:28:04;2.03;;;1.13;;
16254;SDS011;8235;52.198;9.904;2024-02-15T10:30:32;2.20;;;1.37;;
16254;SDS011;8235;52.198;9.904;2024-02-15T10:33:00;2.70;;;1.67;;
16254;SDS011;8235;52.198;9.904;2024-02-15T10:35:27;2.30;;;1.50;;
16254;SDS011;8235;52.198;9.904;2024-02-15T10:38:05;1.67;;;1.43;;
16254;SDS011;8235;52.198;9.904;2024-02-15T10:40:35;2.67;;;1.90;;
16254;SDS011;8235;52.198;9.904;2024-02-15T10:43:02;3.37;;;1.67;;
16254;SDS011;8235;52.198;9.904;2024-02-15T10:45:30;3.50;;;1.40;;
16254;SDS011;8235;52.198;9.904;2024-02-15T10:47:57;2.10;;;1.20;;
16254;SDS011;8235;52.198;9.904;2024-02-15T10:50:24;6.93;;;3.17;;
16254;SDS011;8235;52.198;9.904;2024-02-15T10:52:51;11.40;;;6.80;;
16254;SDS011;8235;52.198;9.904;2024-02-15T10:55:22;3.60;;;1.80;;
16254;SDS011;8235;52.198;9.904;2024-02-15T10:57:55;3.57;;;1.67;;
16254;SDS011;8235;52.198;9.904;2024-02-15T11:00:28;3.13;;;1.50;;
16254;SDS011;8235;52.198;9.904;2024-02-15T11:03:00;4.37;;;1.93;;
16254;SDS011;8235;52.198;9.904;2024-02-15T11:05:30;4.87;;;1.80;;
16254;SDS011;8235;52.198;9.904;2024-02-15T11:07:59;2.63;;;1.50;;
16254;SDS011;8235;52.198;9.904;2024-02-15T11:10:26;3.03;;;2.17;;
16254;SDS011;8235;52.198;9.904;2024-02-15T11:12:55;2.10;;;1.70;;
16254;SDS011;8235;52.198;9.904;2024-02-15T11:21:09;3.50;;;1.67;;
16254;SDS011;8235;52.198;9.904;2024-02-15T11:23:35;3.53;;;2.10;;
16254;SDS011;8235;52.198;9.904;2024-02-15T11:26:02;4.07;;;2.47;;
16254;SDS011;8235;52.198;9.904;2024-02-15T11:28:37;3.40;;;2.30;;
16254;SDS011;8235;52.198;9.904;2024-02-15T11:31:14;3.93;;;2.70;;
16254;SDS011;8235;52.198;9.904;2024-02-15T11:40:11;3.30;;;1.70;;
16254;SDS011;8235;52.198;9.904;2024-02-15T11:42:38;3.70;;;1.70;;
16254;SDS011;8235;52.198;9.904;2024-02-15T11:45:06;2.80;;;1.70;;
16254;SDS011;8235;52.198;9.904;2024-02-15T11:47:36;2.03;;;1.00;;
16254;SDS011;8235;52.198;9.904;2024-02-15T11:50:03;3.23;;;1.50;;
16254;SDS011;8235;52.198;9.904;2024-02-15T11:52:33;2.97;;;1.33;;
16254;SDS011;8235;52.198;9.904;2024-02-15T11:55:06;4.50;;;1.90;;
16254;SDS011;8235;52.198;9.904;2024-02-15T11:57:35;2.20;;;1.37;;
16254;SDS011;8235;52.198;9.904;2024-02-15T12:00:20;3.93;;;1.30;;
16254;SDS011;8235;52.198;9.904;2024-02-15T12:03:01;4.43;;;2.07;;
16254;SDS011;8235;52.198;9.904;2024-02-15T12:05:48;2.57;;;1.50;;
16254;SDS011;8235;52.198;9.904;2024-02-15T12:08:33;1.67;;;1.17;;
16254;SDS011;8235;52.198;9.904;2024-02-15T12:11:17;2.83;;;1.57;;
16254;SDS011;8235;52.198;9.904;2024-02-15T12:14:00;1.93;;;1.00;;
16254;SDS011;8235;52.198;9.904;2024-02-15T12:16:46;2.43;;;1.17;;
16254;SDS011;8235;52.198;9.904;2024-02-15T12:19:30;3.40;;;2.67;;
16254;SDS011;8235;52.198;9.904;2024-02-15T12:21:56;2.30;;;1.60;;
16254;SDS011;8235;52.198;9.904;2024-02-15T12:24:24;3.17;;;1.00;;
16254;SDS011;8235;52.198;9.904;2024-02-15T12:26:59;1.63;;;1.30;;
16254;SDS011;8235;52.198;9.904;2024-02-15T12:29:26;1.73;;;0.97;;
16254;SDS011;8235;52.198;9.904;2024-02-15T12:31:55;3.60;;;1.47;;
16254;SDS011;8235;52.198;9.904;2024-02-15T12:34:22;2.37;;;1.40;;
16254;SDS011;8235;52.198;9.904;2024-02-15T12:36:48;2.03;;;1.00;;
16254;SDS011;8235;52.198;9.904;2024-02-15T12:39:23;2.00;;;1.00;;
16254;SDS011;8235;52.198;9.904;2024-02-15T12:41:52;2.50;;;1.57;;
16254;SDS011;8235;52.198;9.904;2024-02-15T12:44:19;1.30;;;1.20;;
16254;SDS011;8235;52.198;9.904;2024-02-15T12:46:47;4.03;;;1.33;;
16254;SDS011;8235;52.198;9.904;2024-02-15T12:49:29;1.43;;;1.03;;
16254;SDS011;8235;52.198;9.904;2024-02-15T12:55:06;2.13;;;1.50;;
16254;SDS011;8235;52.198;9.904;2024-02-15T12:57:39;3.03;;;2.47;;
16254;SDS011;8235;52.198;9.904;2024-02-15T13:00:10;4.07;;;1.50;;
16254;SDS011;8235;52.198;9.904;2024-02-15T13:02:40;3.20;;;2.10;;
16254;SDS011;8235;52.198;9.904;2024-02-15T13:05:08;2.60;;;1.47;;
16254;SDS011;8235;52.198;9.904;2024-02-15T13:07:35;2.67;;;1.17;;
16254;SDS011;8235;52.198;9.904;2024-02-15T13:10:02;1.77;;;1.17;;
16254;SDS011;8235;52.198;9.904;2024-02-15T13:12:31;1.37;;;1.00;;
16254;SDS011;8235;52.198;9.904;2024-02-15T13:14:59;4.67;;;1.67;;
16254;SDS011;8235;52.198;9.904;2024-02-15T13:17:28;3.23;;;1.30;;
16254;SDS011;8235;52.198;9.904;2024-02-15T13:19:56;2.63;;;1.27;;
16254;SDS011;8235;52.198;9.904;2024-02-15T13:22:29;2.27;;;1.20;;
16254;SDS011;8235;52.198;9.904;2024-02-15T13:24:56;2.73;;;1.10;;
16254;SDS011;8235;52.198;9.904;2024-02-15T13:27:22;2.60;;;1.30;;
16254;SDS011;8235;52.198;9.904;2024-02-15T13:29:49;2.87;;;1.40;;
16254;SDS011;8235;52.198;9.904;2024-02-15T13:32:16;2.00;;;1.40;;
16254;SDS011;8235;52.198;9.904;2024-02-15T13:34:45;2.40;;;1.47;;
16254;SDS011;8235;52.198;9.904;2024-02-15T13:37:17;3.03;;;1.03;;
16254;SDS011;8235;52.198;9.904;2024-02-15T13:39:45;4.60;;;1.10;;
16254;SDS011;8235;52.198;9.904;2024-02-15T13:42:12;3.37;;;1.60;;
16254;SDS011;8235;52.198;9.904;2024-02-15T13:44:39;3.13;;;2.10;;
16254;SDS011;8235;52.198;9.904;2024-02-15T13:47:05;3.73;;;2.20;;
16254;SDS011;8235;52.198;9.904;2024-02-15T13:49:32;1.70;;;1.20;;
16254;SDS011;8235;52.198;9.904;2024-02-15T13:51:59;2.13;;;1.17;;
16254;SDS011;8235;52.198;9.904;2024-02-15T13:54:29;3.53;;;1.73;;
16254;SDS011;8235;52.198;9.904;2024-02-15T13:56:56;2.47;;;1.13;;
16254;SDS011;8235;52.198;9.904;2024-02-15T13:59:22;1.23;;;1.00;;
16254;SDS011;8235;52.198;9.904;2024-02-15T14:01:49;2.80;;;1.00;;
16254;SDS011;8235;52.198;9.904;2024-02-15T14:04:15;1.20;;;1.10;;
16254;SDS011;8235;52.198;9.904;2024-02-15T14:06:42;2.60;;;1.30;;
16254;SDS011;8235;52.198;9.904;2024-02-15T14:09:09;1.73;;;0.90;;
16254;SDS011;8235;52.198;9.904;2024-02-15T14:11:38;2.70;;;1.27;;
16254;SDS011;8235;52.198;9.904;2024-02-15T14:14:05;1.87;;;1.40;;
16254;SDS011;8235;52.198;9.904;2024-02-15T14:16:32;1.33;;;0.80;;
16254;SDS011;8235;52.198;9.904;2024-02-15T14:18:59;3.07;;;1.47;;
16254;SDS011;8235;52.198;9.904;2024-02-15T14:21:28;2.20;;;0.90;;
16254;SDS011;8235;52.198;9.904;2024-02-15T14:23:57;1.47;;;0.90;;
16254;SDS011;8235;52.198;9.904;2024-02-15T14:26:23;1.60;;;0.80;;
16254;SDS011;8235;52.198;9.904;2024-02-15T14:28:54;5.40;;;3.00;;
16254;SDS011;8235;52.198;9.904;2024-02-15T14:31:20;1.73;;;1.13;;
16254;SDS011;8235;52.198;9.904;2024-02-15T14:34:04;2.30;;;0.80;;
16254;SDS011;8235;52.198;9.904;2024-02-15T14:36:31;0.97;;;0.87;;
16254;SDS011;8235;52.198;9.904;2024-02-15T14:38:57;2.50;;;1.27;;
16254;SDS011;8235;52.198;9.904;2024-02-15T14:41:24;2.77;;;1.20;;
16254;SDS011;8235;52.198;9.904;2024-02-15T14:43:51;1.17;;;0.80;;
16254;SDS011;8235;52.198;9.904;2024-02-15T14:46:20;2.10;;;0.80;;
16254;SDS011;8235;52.198;9.904;2024-02-15T14:48:47;4.10;;;1.50;;
16254;SDS011;8235;52.198;9.904;2024-02-15T14:51:14;1.40;;;1.10;;
16254;SDS011;8235;52.198;9.904;2024-02-15T14:53:42;2.70;;;0.90;;
16254;SDS011;8235;52.198;9.904;2024-02-15T14:56:09;2.63;;;1.00;;
16254;SDS011;8235;52.198;9.904;2024-02-15T14:58:35;1.70;;;0.87;;
16254;SDS011;8235;52.198;9.904;2024-02-15T15:01:03;3.30;;;1.20;;
16254;SDS011;8235;52.198;9.904;2024-02-15T15:03:31;1.67;;;1.00;;
16254;SDS011;8235;52.198;9.904;2024-02-15T15:05:58;2.77;;;1.60;;
16254;SDS011;8235;52.198;9.904;2024-02-15T15:08:42;2.23;;;1.20;;
16254;SDS011;8235;52.198;9.904;2024-02-15T15:11:27;1.70;;;1.60;;
16254;SDS011;8235;52.198;9.904;2024-02-15T15:14:10;2.80;;;1.30;;
16254;SDS011;8235;52.198;9.904;2024-02-15T15:16:38;2.60;;;1.20;;
16254;SDS011;8235;52.198;9.904;2024-02-15T15:19:06;2.03;;;1.20;;
16254;SDS011;8235;52.198;9.904;2024-02-15T15:21:32;2.17;;;1.40;;
16254;SDS011;8235;52.198;9.904;2024-02-15T15:23:59;2.03;;;1.43;;